Time;durP1;ratioP1;P1;durP2;ratioP2;P2;SDS_P1;SDS_P2;PMS_P1;PMS_P2;Temp;Humidity;BMP_temperature;BMP_pressure;BME280_temperature;BME280_humidity;BME280_pressure;Samples;Min_cycle;Max_cycle;Signal;HPM_P1;HPM_P2
2023/08/30 00:00:17;;;;;;;7.60;7.00;;;16.20;99.90;;;;;;5032208;28;20903;-71
2023/08/30 00:02:44;;;;;;;9.40;7.60;;;16.30;99.90;;;;;;5032266;28;20434;-71
2023/08/30 00:05:10;;;;;;;7.37;6.27;;;16.30;99.90;;;;;;5031926;28;20464;-71
2023/08/30 00:07:36;;;;;;;10.40;7.50;;;16.30;99.90;;;;;;5032176;28;20850;-71
2023/08/30 00:10:02;;;;;;;7.40;6.60;;;16.40;99.90;;;;;;5032105;28;20449;-71
2023/08/30 00:12:27;;;;;;;6.43;5.93;;;16.40;99.90;;;;;;5032061;28;20430;-72
2023/08/30 00:14:53;;;;;;;7.13;5.90;;;16.40;99.90;;;;;;5032045;28;20652;-70
2023/08/30 00:17:19;;;;;;;8.77;7.50;;;16.40;99.90;;;;;;5032084;28;20517;-71
2023/08/30 00:19:45;;;;;;;8.37;7.57;;;16.40;99.90;;;;;;5032140;28;20172;-70
2023/08/30 00:22:11;;;;;;;7.30;6.60;;;16.40;99.90;;;;;;5032010;28;20441;-71
2023/08/30 00:24:37;;;;;;;9.73;7.30;;;16.40;99.90;;;;;;5031923;28;20407;-71
2023/08/30 00:27:03;;;;;;;6.87;6.27;;;16.40;99.90;;;;;;5045583;28;20908;-71
2023/08/30 00:29:29;;;;;;;7.27;6.50;;;16.40;99.90;;;;;;5051596;28;20248;-71
2023/08/30 00:31:55;;;;;;;6.43;5.80;;;16.40;99.90;;;;;;5043698;28;20685;-72
2023/08/30 00:34:20;;;;;;;6.50;5.90;;;16.50;99.90;;;;;;5045236;28;20254;-71
2023/08/30 00:36:46;;;;;;;7.10;6.40;;;16.50;99.90;;;;;;5051368;28;20813;-70
2023/08/30 00:39:12;;;;;;;7.00;5.60;;;16.50;99.90;;;;;;5051851;28;20179;-72
2023/08/30 00:41:38;;;;;;;7.37;6.70;;;16.50;99.90;;;;;;5051659;28;20667;-72
2023/08/30 00:44:04;;;;;;;7.43;6.10;;;16.50;99.90;;;;;;5051811;28;20441;-72
2023/08/30 00:46:31;;;;;;;5.97;5.13;;;16.50;99.90;;;;;;5051397;28;20167;-71
2023/08/30 00:48:57;;;;;;;7.67;6.97;;;16.50;99.90;;;;;;5051266;28;20540;-71
2023/08/30 00:51:23;;;;;;;8.30;4.73;;;16.40;99.90;;;;;;5031683;28;20822;-71
2023/08/30 00:53:49;;;;;;;5.63;5.00;;;16.50;99.90;;;;;;5030445;28;20435;-72
2023/08/30 00:56:15;;;;;;;5.27;4.73;;;16.50;99.90;;;;;;5031388;28;20172;-71
2023/08/30 00:58:41;;;;;;;8.57;5.03;;;16.60;99.90;;;;;;5031742;28;20406;-72
2023/08/30 01:01:08;;;;;;;6.87;4.77;;;16.50;99.90;;;;;;5034094;28;20412;-71
2023/08/30 01:03:37;;;;;;;5.70;4.73;;;16.50;99.90;;;;;;5035454;28;20188;-71
2023/08/30 01:06:03;;;;;;;5.80;5.07;;;16.50;99.90;;;;;;5034930;28;20437;-71
2023/08/30 01:08:29;;;;;;;4.53;3.97;;;16.40;99.90;;;;;;5035625;28;20460;-71
2023/08/30 01:11:01;;;;;;;5.33;4.73;;;16.40;99.90;;;;;;5035326;28;20587;-72
2023/08/30 01:13:30;;;;;;;5.43;4.93;;;16.40;99.90;;;;;;5034023;28;20616;-70
2023/08/30 01:15:57;;;;;;;6.93;4.80;;;16.30;99.90;;;;;;5035133;28;20417;-71
2023/08/30 01:18:32;;;;;;;7.90;5.40;;;16.20;99.90;;;;;;5035320;28;20414;-71
2023/08/30 01:21:00;;;;;;;6.00;4.00;;;16.20;99.90;;;;;;5035359;28;20408;-71
2023/08/30 01:23:45;;;;;;;5.90;4.77;;;16.00;99.90;;;;;;5034993;28;20422;-71
2023/08/30 01:26:18;;;;;;;6.00;5.50;;;15.90;99.90;;;;;;5039645;28;20433;-71
2023/08/30 01:28:45;;;;;;;5.83;4.40;;;15.80;99.90;;;;;;5054919;28;20412;-70
2023/08/30 01:31:13;;;;;;;5.00;4.50;;;15.70;99.90;;;;;;5049293;28;20426;-71
2023/08/30 01:33:39;;;;;;;5.63;5.13;;;15.60;99.90;;;;;;5047371;28;20437;-71
2023/08/30 01:36:05;;;;;;;5.43;4.37;;;15.50;99.90;;;;;;5054517;28;20576;-71
2023/08/30 01:38:32;;;;;;;6.90;4.90;;;15.40;99.90;;;;;;5054765;28;20418;-71
2023/08/30 01:40:59;;;;;;;6.93;5.30;;;15.30;99.90;;;;;;5054835;28;20420;-71
2023/08/30 01:43:28;;;;;;;7.67;4.87;;;15.20;99.90;;;;;;5054692;28;20429;-71
2023/08/30 01:45:56;;;;;;;7.00;5.10;;;15.10;99.90;;;;;;5054595;28;20413;-74
2023/08/30 01:48:22;;;;;;;6.33;5.73;;;15.10;99.90;;;;;;5054634;28;20811;-70
2023/08/30 01:50:48;;;;;;;5.30;4.60;;;15.00;99.90;;;;;;5039565;28;20450;-71
2023/08/30 01:53:14;;;;;;;6.60;5.70;;;15.00;99.90;;;;;;5034572;28;20421;-71
2023/08/30 01:55:41;;;;;;;7.53;6.00;;;14.80;99.90;;;;;;5034632;28;20433;-72
2023/08/30 01:58:08;;;;;;;8.77;7.47;;;14.70;99.90;;;;;;5035117;28;20401;-72
2023/08/30 02:00:34;;;;;;;8.63;7.70;;;14.70;99.90;;;;;;5034950;28;20402;-75
2023/08/30 02:03:06;;;;;;;8.13;6.93;;;14.60;99.90;;;;;;5034932;28;20445;-74
2023/08/30 02:05:33;;;;;;;7.23;6.50;;;14.60;99.90;;;;;;5033324;28;20454;-75
2023/08/30 02:08:13;;;;;;;11.67;6.80;;;14.60;99.90;;;;;;5034442;28;20798;-73
2023/08/30 02:10:44;;;;;;;8.83;7.30;;;14.70;99.90;;;;;;5034339;28;20987;-73
2023/08/30 02:13:12;;;;;;;7.80;6.50;;;14.70;99.90;;;;;;5033166;28;20442;-74
2023/08/30 02:15:39;;;;;;;6.90;5.80;;;14.70;99.90;;;;;;5032730;28;20979;-72
2023/08/30 02:18:05;;;;;;;7.93;6.90;;;14.70;99.90;;;;;;5034422;28;20438;-74
2023/08/30 02:20:32;;;;;;;7.47;6.57;;;14.60;99.90;;;;;;5033414;28;20887;-75
2023/08/30 02:23:00;;;;;;;8.30;7.10;;;14.60;99.90;;;;;;5034579;28;20426;-74
2023/08/30 02:25:26;;;;;;;9.43;7.50;;;14.60;99.90;;;;;;5034157;28;20411;-74
2023/08/30 02:27:51;;;;;;;6.47;5.87;;;14.50;99.90;;;;;;5053809;28;20440;-75
2023/08/30 02:30:17;;;;;;;9.87;7.90;;;14.50;99.90;;;;;;5054135;28;20203;-74
2023/08/30 02:32:43;;;;;;;6.77;6.03;;;14.40;99.90;;;;;;5045459;28;20256;-73
2023/08/30 02:35:08;;;;;;;7.20;6.50;;;14.40;99.90;;;;;;5049177;28;20179;-74
2023/08/30 02:37:34;;;;;;;9.70;7.23;;;14.30;99.90;;;;;;5054167;28;20167;-75
2023/08/30 02:40:00;;;;;;;9.43;5.77;;;14.20;99.90;;;;;;5054048;28;20255;-74
2023/08/30 02:42:26;;;;;;;7.63;6.20;;;14.10;99.90;;;;;;5052953;28;20190;-74
2023/08/30 02:44:52;;;;;;;8.20;7.40;;;14.10;99.90;;;;;;5053976;28;20921;-73
2023/08/30 02:47:17;;;;;;;9.77;7.60;;;14.00;99.90;;;;;;5052527;28;20174;-73
2023/08/30 02:49:43;;;;;;;12.17;7.23;;;14.00;99.90;;;;;;5047593;28;20438;-74
2023/08/30 02:52:09;;;;;;;8.47;7.40;;;13.90;99.90;;;;;;5034067;28;20271;-74
2023/08/30 02:54:34;;;;;;;8.33;6.97;;;13.90;99.90;;;;;;5034189;28;20627;-74
2023/08/30 02:57:00;;;;;;;12.53;8.17;;;13.80;99.90;;;;;;5033710;28;20954;-73
2023/08/30 02:59:25;;;;;;;13.00;10.30;;;13.90;99.90;;;;;;5034042;28;20168;-73
2023/08/30 03:01:51;;;;;;;10.20;8.77;;;13.90;99.90;;;;;;5033751;28;20174;-74
2023/08/30 03:04:17;;;;;;;9.77;7.77;;;13.80;99.90;;;;;;5034445;28;20172;-74
2023/08/30 03:06:43;;;;;;;7.90;7.10;;;13.80;99.90;;;;;;5033678;28;20211;-74
2023/08/30 03:09:08;;;;;;;9.90;7.50;;;13.80;99.90;;;;;;5034040;28;20496;-73
2023/08/30 03:11:34;;;;;;;12.53;11.17;;;13.80;99.90;;;;;;5033929;28;20164;-74
2023/08/30 03:13:59;;;;;;;10.20;7.43;;;13.80;99.90;;;;;;5033897;28;20555;-74
2023/08/30 03:16:25;;;;;;;8.17;7.10;;;13.70;99.90;;;;;;5033164;28;20511;-73
2023/08/30 03:18:51;;;;;;;7.60;6.80;;;13.70;99.90;;;;;;5033176;28;20171;-73
2023/08/30 03:21:16;;;;;;;9.03;7.00;;;13.60;99.90;;;;;;5032891;28;20191;-73
2023/08/30 03:23:42;;;;;;;9.47;7.97;;;13.70;99.90;;;;;;5032735;28;20422;-73
2023/08/30 03:26:09;;;;;;;8.00;6.93;;;13.70;99.90;;;;;;5036900;28;20186;-73
2023/08/30 03:28:35;;;;;;;7.70;7.00;;;13.60;99.90;;;;;;5052822;28;20174;-73
2023/08/30 03:31:01;;;;;;;8.37;6.57;;;13.60;99.90;;;;;;5048750;28;20472;-73
2023/08/30 03:33:26;;;;;;;7.40;6.63;;;13.60;99.90;;;;;;5040132;28;20431;-74
2023/08/30 03:35:52;;;;;;;8.23;7.10;;;13.60;99.90;;;;;;5051766;28;20186;-74
2023/08/30 03:38:17;;;;;;;7.90;6.50;;;13.60;99.90;;;;;;5053603;28;20201;-74
2023/08/30 03:40:43;;;;;;;8.20;7.30;;;13.60;99.90;;;;;;5053170;28;20567;-74
2023/08/30 03:43:08;;;;;;;8.67;7.87;;;13.60;99.90;;;;;;5053400;28;20268;-73
2023/08/30 03:45:38;;;;;;;7.47;6.13;;;13.60;99.90;;;;;;5052928;28;20220;-74
2023/08/30 03:48:04;;;;;;;11.23;7.43;;;13.60;99.90;;;;;;5053286;28;20167;-74
2023/08/30 03:50:29;;;;;;;9.50;8.10;;;13.50;99.90;;;;;;5052902;28;20954;-74
2023/08/30 03:52:55;;;;;;;8.50;7.70;;;13.50;99.90;;;;;;5052777;28;20432;-74
2023/08/30 03:55:22;;;;;;;8.87;7.87;;;13.50;99.90;;;;;;5051516;28;20167;-75
2023/08/30 03:57:48;;;;;;;10.20;7.57;;;13.40;99.90;;;;;;5031638;28;20166;-74
2023/08/30 04:00:13;;;;;;;10.73;7.80;;;13.40;99.90;;;;;;5033047;28;20406;-74
2023/08/30 04:02:39;;;;;;;10.93;7.57;;;13.40;99.90;;;;;;5032710;28;20194;-73
2023/08/30 04:05:08;;;;;;;8.97;8.07;;;13.30;99.90;;;;;;5032564;28;20254;-74
2023/08/30 04:07:35;;;;;;;7.80;6.63;;;13.30;99.90;;;;;;5032559;28;20176;-74
2023/08/30 04:10:02;;;;;;;7.73;6.70;;;13.30;99.90;;;;;;5032537;28;20537;-75
2023/08/30 04:12:28;;;;;;;8.70;7.23;;;13.30;99.90;;;;;;5031397;28;20430;-74
2023/08/30 04:14:54;;;;;;;8.43;7.47;;;13.20;99.90;;;;;;5031222;28;20544;-72
2023/08/30 04:17:19;;;;;;;9.10;8.00;;;13.20;99.90;;;;;;5032472;28;20402;-75
2023/08/30 04:19:45;;;;;;;9.73;7.73;;;13.20;99.90;;;;;;5030992;28;20652;-74
2023/08/30 04:22:10;;;;;;;8.77;6.87;;;13.10;99.90;;;;;;5032534;28;20219;-74
2023/08/30 04:24:36;;;;;;;10.13;7.63;;;13.20;99.90;;;;;;5032236;28;20289;-74
2023/08/30 04:27:01;;;;;;;11.93;7.60;;;13.20;99.90;;;;;;5032103;28;20659;-75
2023/08/30 04:29:27;;;;;;;8.73;7.20;;;13.20;99.90;;;;;;5032239;28;20199;-74
2023/08/30 04:31:54;;;;;;;10.60;6.70;;;13.20;99.90;;;;;;5034403;28;20202;-73
2023/08/30 04:34:19;;;;;;;7.50;6.67;;;13.10;99.90;;;;;;5044062;28;20632;-74
2023/08/30 04:36:45;;;;;;;8.63;7.20;;;13.10;99.90;;;;;;5041364;28;20422;-74
2023/08/30 04:39:12;;;;;;;8.50;7.60;;;13.10;99.90;;;;;;5052034;28;20166;-74
2023/08/30 04:41:38;;;;;;;8.70;7.83;;;13.00;99.90;;;;;;5050732;28;20464;-75
2023/08/30 04:44:03;;;;;;;9.23;8.10;;;13.00;99.90;;;;;;5052111;28;20441;-74
2023/08/30 04:46:29;;;;;;;12.87;7.73;;;12.90;99.90;;;;;;5050511;28;20593;-74
2023/08/30 04:48:54;;;;;;;9.80;7.87;;;13.00;99.90;;;;;;5052160;28;20167;-74
2023/08/30 04:51:20;;;;;;;8.27;6.80;;;13.00;99.90;;;;;;5052029;28;20197;-74
2023/08/30 04:53:45;;;;;;;10.07;7.10;;;13.00;99.90;;;;;;5052033;28;20186;-74
2023/08/30 04:56:15;;;;;;;8.60;7.70;;;13.00;99.90;;;;;;5051942;28;20220;-75
2023/08/30 04:58:40;;;;;;;7.93;6.13;;;12.90;99.90;;;;;;5050729;28;20220;-73
2023/08/30 05:01:06;;;;;;;8.67;6.97;;;13.00;99.90;;;;;;5052035;28;20807;-75
2023/08/30 05:03:32;;;;;;;7.60;6.63;;;13.00;99.90;;;;;;5052129;28;20563;-74
2023/08/30 05:05:58;;;;;;;7.97;7.17;;;13.00;99.90;;;;;;5051546;28;20406;-74
2023/08/30 05:08:23;;;;;;;11.40;8.73;;;13.00;99.90;;;;;;5051882;28;20439;-74
2023/08/30 05:10:49;;;;;;;9.50;8.30;;;13.00;99.90;;;;;;5051960;28;20670;-74
2023/08/30 05:13:16;;;;;;;8.13;7.33;;;13.10;99.90;;;;;;5051939;28;20270;-74
2023/08/30 05:15:41;;;;;;;6.73;5.93;;;13.10;99.90;;;;;;5047427;28;20417;-74
2023/08/30 05:18:07;;;;;;;8.37;7.50;;;13.20;99.90;;;;;;5039965;28;20422;-74
2023/08/30 05:20:32;;;;;;;8.23;7.30;;;13.20;99.90;;;;;;5040120;28;20190;-75
2023/08/30 05:22:58;;;;;;;9.70;7.70;;;13.10;99.90;;;;;;5051988;28;20320;-72
2023/08/30 05:25:24;;;;;;;10.53;7.70;;;13.00;99.90;;;;;;5051699;28;20246;-73
2023/08/30 05:27:49;;;;;;;9.40;5.87;;;13.00;99.90;;;;;;5051192;28;20175;-73
2023/08/30 05:30:16;;;;;;;7.23;6.53;;;13.00;99.90;;;;;;5051856;28;20675;-74
2023/08/30 05:32:41;;;;;;;10.73;8.23;;;13.10;99.90;;;;;;5043402;28;20187;-73
2023/08/30 05:35:07;;;;;;;8.50;7.43;;;13.10;99.90;;;;;;5044341;28;20886;-74
2023/08/30 05:37:33;;;;;;;9.20;7.50;;;13.10;99.90;;;;;;5043602;28;20668;-74
2023/08/30 05:39:58;;;;;;;8.33;7.50;;;13.20;99.90;;;;;;5051748;28;20250;-74
2023/08/30 05:42:24;;;;;;;7.23;5.90;;;13.20;99.90;;;;;;5051774;28;20217;-74
2023/08/30 05:44:49;;;;;;;9.83;7.43;;;13.30;99.90;;;;;;5050518;28;20178;-74
2023/08/30 05:47:16;;;;;;;11.43;7.70;;;13.40;99.90;;;;;;5052356;28;20171;-74
2023/08/30 05:49:42;;;;;;;7.80;6.90;;;13.60;99.90;;;;;;5054042;28;20221;-74
2023/08/30 05:52:08;;;;;;;10.50;7.27;;;13.80;99.90;;;;;;5055177;28;20464;-74
2023/08/30 05:54:33;;;;;;;8.27;7.30;;;14.00;99.90;;;;;;5055241;28;20522;-74
2023/08/30 05:56:59;;;;;;;8.33;6.10;;;14.30;99.90;;;;;;5034453;28;20814;-74
2023/08/30 05:59:25;;;;;;;10.27;7.30;;;14.50;99.90;;;;;;5043056;28;20198;-74
2023/08/30 06:01:51;;;;;;;7.07;6.40;;;14.80;99.90;;;;;;5053337;28;20520;-73
2023/08/30 06:04:16;;;;;;;7.77;6.53;;;15.10;99.90;;;;;;5054816;28;20171;-73
2023/08/30 06:06:42;;;;;;;8.37;7.57;;;15.30;99.90;;;;;;5054249;28;20194;-74
2023/08/30 06:09:07;;;;;;;12.43;7.53;;;15.50;99.90;;;;;;5054563;28;20191;-73
2023/08/30 06:11:33;;;;;;;5.63;5.20;;;15.70;99.90;;;;;;5053384;28;20195;-73
2023/08/30 06:14:01;;;;;;;6.17;5.57;;;15.70;99.90;;;;;;5054740;28;20236;-74
2023/08/30 06:16:27;;;;;;;5.40;4.83;;;15.90;99.90;;;;;;5054614;28;20166;-74
2023/08/30 06:18:52;;;;;;;10.63;5.00;;;16.00;99.90;;;;;;5041404;28;20407;-73
2023/08/30 06:21:18;;;;;;;7.70;5.53;;;16.10;99.90;;;;;;5034238;28;20174;-75
2023/08/30 06:23:43;;;;;;;5.57;4.73;;;16.50;99.90;;;;;;5032884;28;20194;-74
2023/08/30 06:26:09;;;;;;;6.23;5.60;;;16.80;99.90;;;;;;5033926;28;20258;-74
2023/08/30 06:28:34;;;;;;;6.57;5.10;;;17.30;99.90;;;;;;5034240;28;20164;-72
2023/08/30 06:31:00;;;;;;;6.53;4.60;;;17.60;99.90;;;;;;5033770;28;20202;-73
2023/08/30 06:33:25;;;;;;;6.60;5.70;;;17.60;99.90;;;;;;5049056;28;20203;-72
2023/08/30 06:35:53;;;;;;;4.83;4.33;;;17.50;99.90;;;;;;5049924;28;20544;-72
2023/08/30 06:38:19;;;;;;;5.37;4.87;;;17.60;99.90;;;;;;5048393;28;20274;-72
2023/08/30 06:40:45;;;;;;;5.27;3.83;;;17.50;99.90;;;;;;5046062;28;20414;-72
2023/08/30 06:43:12;;;;;;;6.97;5.17;;;17.40;99.90;;;;;;5053639;28;21032;-72
2023/08/30 06:45:39;;;;;;;6.80;5.83;;;17.40;99.90;;;;;;5039319;28;20437;-72
2023/08/30 06:48:06;;;;;;;5.40;4.90;;;17.50;99.90;;;;;;5045326;28;20421;-73
2023/08/30 06:50:32;;;;;;;4.70;4.30;;;17.60;99.90;;;;;;5045232;28;20802;-73
2023/08/30 06:52:58;;;;;;;5.77;3.90;;;17.90;99.90;;;;;;5053758;28;20460;-73
2023/08/30 06:55:23;;;;;;;7.03;4.83;;;18.20;99.90;;;;;;5052178;28;20817;-72
2023/08/30 06:57:52;;;;;;;6.90;4.17;;;18.40;99.90;;;;;;5053072;28;20246;-73
2023/08/30 07:00:18;;;;;;;6.83;4.87;;;18.50;99.90;;;;;;5053510;28;20658;-73
2023/08/30 07:02:46;;;;;;;9.93;4.53;;;18.30;99.90;;;;;;5053830;28;20517;-74
2023/08/30 07:05:12;;;;;;;8.60;4.13;;;18.30;99.90;;;;;;5053488;28;20166;-72
2023/08/30 07:07:38;;;;;;;6.23;4.30;;;18.30;99.90;;;;;;5053270;28;20440;-72
2023/08/30 07:10:04;;;;;;;6.07;4.87;;;18.70;99.90;;;;;;5053132;28;20943;-73
2023/08/30 07:12:30;;;;;;;4.90;3.80;;;19.50;99.90;;;;;;5053287;28;20591;-71
2023/08/30 07:14:55;;;;;;;4.33;3.97;;;20.10;99.90;;;;;;5052707;28;20451;-71
2023/08/30 07:17:21;;;;;;;4.90;4.20;;;20.30;99.90;;;;;;5052920;28;20167;-73
2023/08/30 07:19:46;;;;;;;4.20;3.87;;;20.40;99.90;;;;;;5051266;28;20229;-73
2023/08/30 07:22:12;;;;;;;4.10;3.43;;;20.40;99.90;;;;;;5033091;28;20198;-72
2023/08/30 07:24:37;;;;;;;3.97;3.60;;;20.30;99.90;;;;;;5032239;28;20170;-73
2023/08/30 07:27:03;;;;;;;5.90;3.90;;;20.80;99.90;;;;;;5052751;28;20758;-74
2023/08/30 07:29:29;;;;;;;5.10;4.40;;;21.90;99.90;;;;;;5051585;28;20281;-74
2023/08/30 07:31:54;;;;;;;5.53;3.50;;;22.50;99.90;;;;;;5046408;28;20171;-71
2023/08/30 07:34:20;;;;;;;4.87;2.53;;;22.60;99.90;;;;;;5040934;28;20521;-71
2023/08/30 07:36:46;;;;;;;3.33;2.60;;;22.70;99.90;;;;;;5044876;28;20175;-71
2023/08/30 07:39:11;;;;;;;4.57;4.17;;;22.30;99.90;;;;;;5041397;28;20242;-70
2023/08/30 07:41:37;;;;;;;4.30;4.00;;;22.60;99.90;;;;;;5032761;28;20637;-70
2023/08/30 07:44:03;;;;;;;4.63;3.80;;;23.20;99.90;;;;;;5032610;28;20191;-71
2023/08/30 07:46:28;;;;;;;3.90;3.57;;;23.90;99.60;;;;;;5032455;28;20175;-71
2023/08/30 07:48:55;;;;;;;7.80;3.57;;;23.90;96.80;;;;;;5031885;28;20569;-71
2023/08/30 07:51:20;;;;;;;5.30;4.90;;;23.80;94.90;;;;;;5044242;28;20515;-71
2023/08/30 07:53:46;;;;;;;4.67;4.20;;;23.80;96.60;;;;;;5049130;28;20426;-71
2023/08/30 07:56:11;;;;;;;4.13;3.67;;;23.60;96.30;;;;;;5052018;28;20415;-71
2023/08/30 07:58:37;;;;;;;3.67;3.13;;;23.70;95.80;;;;;;5052346;28;20173;-71
2023/08/30 08:01:03;;;;;;;3.90;3.60;;;23.70;95.90;;;;;;5044086;28;20179;-71
2023/08/30 08:03:28;;;;;;;5.30;3.90;;;23.60;96.60;;;;;;5052020;28;20198;-71
2023/08/30 08:05:54;;;;;;;5.40;4.30;;;23.60;97.40;;;;;;5045168;28;20174;-71
2023/08/30 08:08:19;;;;;;;3.93;3.20;;;23.60;96.90;;;;;;5052200;28;20236;-71
2023/08/30 08:10:45;;;;;;;3.60;3.30;;;23.90;97.90;;;;;;5051372;28;20202;-71
2023/08/30 08:13:12;;;;;;;5.30;4.30;;;24.10;96.70;;;;;;5052064;28;20190;-71
2023/08/30 08:15:38;;;;;;;4.00;3.63;;;24.10;95.40;;;;;;5051850;28;20531;-71
2023/08/30 08:18:03;;;;;;;3.70;3.17;;;24.00;93.90;;;;;;5051963;28;20406;-70
2023/08/30 08:20:30;;;;;;;3.97;3.20;;;24.40;93.60;;;;;;5052074;28;20644;-71
2023/08/30 08:22:56;;;;;;;3.20;2.87;;;24.70;93.30;;;;;;5052012;28;20265;-70
2023/08/30 08:25:23;;;;;;;3.90;3.43;;;24.90;90.70;;;;;;5051710;28;20902;-71
2023/08/30 08:27:48;;;;;;;6.40;3.53;;;25.10;88.00;;;;;;5051982;28;20169;-71
2023/08/30 08:30:14;;;;;;;5.00;3.47;;;25.20;84.00;;;;;;5033872;28;20548;-70
2023/08/30 08:32:39;;;;;;;5.53;3.90;;;25.50;83.90;;;;;;5041848;28;20208;-71
2023/08/30 08:35:05;;;;;;;6.53;3.23;;;26.00;82.20;;;;;;5044245;28;20625;-71
2023/08/30 08:37:31;;;;;;;7.20;2.60;;;26.40;76.30;;;;;;5051900;28;20220;-70
2023/08/30 08:39:57;;;;;;;2.67;2.37;;;26.30;68.30;;;;;;5050773;28;20397;-71
2023/08/30 08:42:23;;;;;;;5.30;3.17;;;26.60;68.10;;;;;;5038281;28;20970;-70
2023/08/30 08:44:54;;;;;;;6.43;3.20;;;26.90;63.00;;;;;;5043645;28;20258;-71
2023/08/30 08:47:21;;;;;;;3.00;2.47;;;27.40;61.80;;;;;;5041264;28;20266;-71
2023/08/30 08:49:47;;;;;;;3.07;2.40;;;28.30;58.70;;;;;;5049786;28;20539;-71
2023/08/30 08:52:15;;;;;;;2.40;2.10;;;29.10;56.20;;;;;;5046127;28;20872;-71
2023/08/30 08:54:40;;;;;;;3.93;2.80;;;29.30;54.40;;;;;;5039628;28;20430;-71
2023/08/30 08:57:09;;;;;;;3.53;3.07;;;28.70;52.10;;;;;;5049611;28;20968;-71
2023/08/30 08:59:35;;;;;;;3.53;2.90;;;28.00;53.50;;;;;;5051395;28;20202;-71
2023/08/30 09:02:01;;;;;;;3.97;2.87;;;27.20;55.20;;;;;;5051531;28;20958;-71
2023/08/30 09:04:32;;;;;;;3.73;2.80;;;26.50;56.00;;;;;;5051567;28;20204;-70
2023/08/30 09:07:01;;;;;;;2.50;2.30;;;25.90;57.60;;;;;;5050225;28;20452;-71
2023/08/30 09:09:27;;;;;;;3.30;3.00;;;25.30;59.60;;;;;;5051433;28;21042;-70
2023/08/30 09:11:53;;;;;;;3.20;2.60;;;24.70;62.90;;;;;;5051419;28;20480;-70
2023/08/30 09:14:19;;;;;;;3.30;2.07;;;24.50;64.80;;;;;;5050138;28;20275;-71
2023/08/30 09:16:58;;;;;;;3.07;2.30;;;24.40;67.30;;;;;;5051226;28;20178;-71
2023/08/30 09:19:24;;;;;;;2.47;2.07;;;24.70;69.50;;;;;;5051422;28;20406;-71
2023/08/30 09:21:57;;;;;;;3.40;2.30;;;24.80;66.20;;;;;;5053318;28;20499;-71
2023/08/30 09:24:23;;;;;;;2.97;2.20;;;24.80;66.50;;;;;;5053978;28;20952;-70
2023/08/30 09:26:53;;;;;;;3.60;2.40;;;24.80;68.20;;;;;;5054901;28;20410;-71
2023/08/30 09:29:21;;;;;;;3.00;2.30;;;24.40;69.40;;;;;;5055076;28;20252;-71
2023/08/30 09:31:51;;;;;;;3.50;2.90;;;24.10;69.90;;;;;;5054958;28;20770;-71
2023/08/30 09:34:17;;;;;;;3.30;2.00;;;23.80;71.60;;;;;;5055088;28;20412;-71
2023/08/30 09:36:45;;;;;;;4.47;3.40;;;23.50;72.90;;;;;;5054797;28;20397;-70
2023/08/30 09:39:13;;;;;;;5.63;2.63;;;23.00;73.30;;;;;;5054921;28;20163;-71
2023/08/30 09:41:43;;;;;;;2.40;2.20;;;22.90;79.50;;;;;;5054933;28;20420;-70
2023/08/30 09:44:16;;;;;;;2.83;2.50;;;23.00;81.90;;;;;;5053628;28;20413;-71
2023/08/30 09:46:44;;;;;;;2.73;2.53;;;23.10;85.30;;;;;;5054531;28;20991;-71
2023/08/30 09:49:10;;;;;;;2.67;2.43;;;23.20;86.10;;;;;;5054734;28;20944;-71
2023/08/30 09:51:38;;;;;;;8.70;2.43;;;23.20;88.20;;;;;;5054662;28;20409;-71
2023/08/30 09:54:05;;;;;;;2.50;2.30;;;22.80;89.20;;;;;;5054697;28;20423;-70
2023/08/30 09:56:33;;;;;;;2.70;2.00;;;22.80;91.80;;;;;;5054465;28;20466;-70
2023/08/30 09:59:00;;;;;;;2.87;2.20;;;22.70;94.20;;;;;;5054796;28;20787;-71
2023/08/30 10:01:27;;;;;;;6.83;3.97;;;22.70;96.50;;;;;;5054496;28;20486;-70
2023/08/30 10:03:56;;;;;;;6.27;2.87;;;22.40;97.30;;;;;;5054462;28;20446;-71
2023/08/30 10:06:24;;;;;;;4.10;2.77;;;22.20;99.90;;;;;;5053999;28;20486;-70
2023/08/30 10:08:52;;;;;;;5.77;2.60;;;22.20;99.90;;;;;;5054389;28;20478;-70
2023/08/30 10:11:18;;;;;;;4.60;2.10;;;22.10;99.90;;;;;;5054294;28;20441;-70
2023/08/30 10:13:45;;;;;;;2.70;2.50;;;22.10;99.90;;;;;;5054300;28;20428;-70
2023/08/30 10:16:18;;;;;;;3.87;2.33;;;22.10;99.90;;;;;;5053982;28;20436;-70
2023/08/30 10:18:48;;;;;;;5.00;3.07;;;22.00;99.90;;;;;;5054299;28;20961;-71
2023/08/30 10:21:17;;;;;;;6.13;2.90;;;21.80;99.90;;;;;;5054169;28;20401;-70
2023/08/30 10:23:43;;;;;;;5.63;2.60;;;21.70;99.90;;;;;;5054095;28;20436;-70
2023/08/30 10:26:09;;;;;;;3.10;2.10;;;21.60;99.90;;;;;;5053780;28;20416;-70
2023/08/30 10:28:35;;;;;;;2.90;2.20;;;21.40;99.90;;;;;;5054063;28;20405;-70
2023/08/30 10:31:01;;;;;;;2.20;2.00;;;21.40;99.90;;;;;;5053904;28;20287;-70
2023/08/30 10:33:26;;;;;;;1.97;1.80;;;21.30;99.90;;;;;;5052975;28;20508;-71
2023/08/30 10:35:52;;;;;;;3.80;2.80;;;21.30;99.90;;;;;;5053690;28;20636;-71
2023/08/30 10:38:28;;;;;;;8.17;2.53;;;21.20;99.90;;;;;;5054060;28;20167;-71
2023/08/30 10:41:06;;;;;;;2.87;2.23;;;21.10;99.90;;;;;;5053950;28;20660;-71
2023/08/30 10:43:35;;;;;;;4.03;2.47;;;21.00;99.90;;;;;;5053637;28;20432;-70
2023/08/30 10:46:06;;;;;;;3.60;2.50;;;20.90;99.90;;;;;;5053346;28;20501;-71
2023/08/30 10:48:37;;;;;;;4.10;3.57;;;20.60;99.90;;;;;;5053610;28;20496;-71
2023/08/30 10:51:05;;;;;;;7.30;5.90;;;20.30;99.90;;;;;;5052269;28;20453;-70
2023/08/30 10:53:30;;;;;;;2.70;2.00;;;20.10;99.90;;;;;;5053492;28;20421;-70
2023/08/30 10:56:11;;;;;;;4.23;2.53;;;19.90;99.90;;;;;;5053286;28;20914;-69
2023/08/30 10:58:43;;;;;;;2.10;1.60;;;19.40;99.90;;;;;;5053431;28;20167;-69
2023/08/30 11:01:12;;;;;;;2.13;1.90;;;19.10;99.90;;;;;;5053475;28;20917;-70
2023/08/30 11:03:39;;;;;;;2.43;1.80;;;19.00;99.90;;;;;;5053626;28;20420;-70
2023/08/30 11:06:04;;;;;;;4.57;1.90;;;19.00;99.90;;;;;;5053064;28;20459;-70
2023/08/30 11:08:30;;;;;;;4.20;2.00;;;19.00;99.90;;;;;;5053329;28;20894;-70
2023/08/30 11:11:05;;;;;;;3.43;1.70;;;19.00;99.90;;;;;;5053185;28;20266;-70
2023/08/30 11:13:31;;;;;;;3.10;1.83;;;18.80;99.90;;;;;;5053131;28;20185;-70
2023/08/30 11:16:01;;;;;;;3.00;1.63;;;18.40;99.90;;;;;;5051670;28;20401;-69
2023/08/30 11:18:27;;;;;;;1.97;1.80;;;18.10;99.90;;;;;;5053202;28;20193;-70
2023/08/30 11:21:02;;;;;;;5.33;2.00;;;18.00;99.90;;;;;;5053049;28;20405;-70
2023/08/30 11:23:28;;;;;;;3.23;1.97;;;17.80;99.90;;;;;;5052902;28;20190;-71
2023/08/30 11:25:54;;;;;;;4.60;1.90;;;17.70;99.90;;;;;;5052717;28;20794;-70
2023/08/30 11:28:25;;;;;;;2.37;2.13;;;17.80;99.90;;;;;;5048723;28;20429;-70
2023/08/30 11:30:55;;;;;;;3.73;2.17;;;17.90;99.90;;;;;;5044369;28;20629;-70
2023/08/30 11:33:23;;;;;;;2.30;2.07;;;18.20;99.90;;;;;;5048202;28;20445;-70
2023/08/30 11:35:51;;;;;;;4.30;2.20;;;18.40;99.90;;;;;;5036478;28;20410;-70
2023/08/30 11:38:17;;;;;;;3.47;2.50;;;18.50;99.90;;;;;;5044372;28;20417;-70
2023/08/30 11:40:43;;;;;;;4.37;2.17;;;18.70;99.90;;;;;;5051101;28;20453;-71
2023/08/30 11:43:10;;;;;;;3.40;2.37;;;18.80;99.90;;;;;;5052495;28;20452;-69
2023/08/30 11:45:35;;;;;;;2.30;2.10;;;18.70;99.90;;;;;;5052217;28;20171;-70
2023/08/30 11:48:01;;;;;;;4.30;3.90;;;18.60;99.90;;;;;;5052583;28;20809;-69
2023/08/30 11:50:28;;;;;;;2.33;2.10;;;18.50;99.90;;;;;;5052403;28;20620;-69
2023/08/30 11:52:54;;;;;;;2.07;1.87;;;18.30;99.90;;;;;;5052396;28;20422;-69
2023/08/30 11:55:21;;;;;;;3.37;2.80;;;18.20;99.90;;;;;;5050918;28;20429;-69
2023/08/30 11:57:51;;;;;;;5.53;1.93;;;18.20;99.90;;;;;;5052320;28;20406;-70
2023/08/30 12:00:18;;;;;;;6.80;2.63;;;18.20;99.90;;;;;;5052394;28;20405;-70
2023/08/30 12:02:46;;;;;;;2.87;2.33;;;18.30;99.90;;;;;;5051125;28;20950;-70
2023/08/30 12:05:13;;;;;;;2.50;2.03;;;18.50;99.90;;;;;;5051974;28;20409;-69
2023/08/30 12:07:40;;;;;;;1.93;1.83;;;18.60;99.90;;;;;;5046359;28;20433;-70
2023/08/30 12:10:12;;;;;;;2.20;1.87;;;18.60;99.90;;;;;;5043145;28;20541;-70
2023/08/30 12:12:37;;;;;;;8.37;5.90;;;18.70;99.90;;;;;;5043513;28;20947;-70
2023/08/30 12:15:10;;;;;;;3.30;2.03;;;18.80;99.90;;;;;;5051789;28;20496;-70
2023/08/30 12:17:36;;;;;;;3.10;2.10;;;18.80;99.90;;;;;;5052074;28;20593;-70
2023/08/30 12:20:03;;;;;;;4.13;2.20;;;18.70;99.90;;;;;;5052112;28;20433;-72
2023/08/30 12:22:41;;;;;;;3.40;1.60;;;18.90;99.90;;;;;;5051908;28;20179;-72
2023/08/30 12:25:20;;;;;;;2.90;2.20;;;18.90;99.90;;;;;;5051809;28;20989;-71
2023/08/30 12:27:47;;;;;;;1.80;1.60;;;18.70;99.90;;;;;;5048019;28;20892;-71
2023/08/30 12:30:16;;;;;;;1.77;1.50;;;18.50;99.90;;;;;;5045821;28;20458;-71
2023/08/30 12:32:42;;;;;;;1.57;1.47;;;18.50;99.90;;;;;;5032895;28;20445;-71
2023/08/30 12:35:09;;;;;;;2.37;1.70;;;18.30;99.90;;;;;;5051561;28;20402;-71
2023/08/30 12:37:34;;;;;;;1.50;1.33;;;18.20;99.90;;;;;;5051754;28;20397;-71
2023/08/30 12:40:00;;;;;;;1.93;1.63;;;18.10;99.90;;;;;;5051584;28;20417;-71
2023/08/30 12:42:26;;;;;;;1.57;1.47;;;18.10;99.90;;;;;;5051543;28;20588;-72